Ted Stevens Anchorage International Airport
PANC : now visible

Airfield :











YOU CAN JOIN US ON...

 
LOGIN :

Register | Disclaimer

   EN    FR    IT 

 









Legend :    VFR   Marginal VFR   IFR   Intensive IFR   Very Intensive IFR
Visi :
Ceiling :
>= 8 km
>= 3000ft
5 to 8 km
1000 to 3000 ft
1500m to 5 km
500 to 1000 ft
800 to 1500m
200 to 500 ft
< 800m
< 200 ft
Symbols :   Thunderstorms  Fog  Heavy snow  Heavy precipitations  Wind > 20 kt







- Airport Elevation : 152 ft
- IATA code : ANC


PANC - Ted Stevens Anchorage International

CURRENT METAR :
  • 241453Z 19005KT 10SM FEW100 SCT180 17/12 A3003 RMK AO2 RAB07E10 SLP167 P0000 60000 T01670117 51002

EXPIRED METARs :
  • 241353Z 00000KT 10SM FEW080 SCT100 SCT180 16/11 A3002 RMK AO2 SLP167 T01560111
  • 241253Z 00000KT 10SM FEW050 SCT100 SCT180 16/11 A3002 RMK AO2 SLP167 T01560111

TAF PANC
Valid from the 24 at 15:00 until the 25 at 18:00 UTC


241501Z 2415/2518 20006KT P6SM FEW100 SCT180
FM241800 28006KT P6SM FEW050 SCT200
PAZA FIR / North America



MET'MAP, your aeronautical weather chart ! - Copyright ORBIFLY December 2007 - Disclaimer

ORBIFLY MET'MAP TEAM :

Programming & Development : Alexandra Zaïnal
Concept & Development : Baudouin d'Aumeries
Co-Development & Prog : Marc-Olivier Méhu
Technical & hardware support : Manuel Goepfert

Contact : metmap@orbifly.com




SOURCES & CREDITS :

   NOAA       Earth
Advisory